sensor_id;sensor_type;location;lat;lon;timestamp;pressure;altitude;pressure_sealevel;temperature;humidity
21545;BME280;10933;50.754;11.508;2024-03-17T00:01:37;100332.88;;;0.62;100.00
21545;BME280;10933;50.754;11.508;2024-03-17T00:04:03;100338.69;;;0.57;100.00
21545;BME280;10933;50.754;11.508;2024-03-17T00:06:30;100339.53;;;0.58;100.00
21545;BME280;10933;50.754;11.508;2024-03-17T00:08:56;100334.38;;;0.48;100.00
21545;BME280;10933;50.754;11.508;2024-03-17T00:11:22;100342.34;;;0.48;100.00
21545;BME280;10933;50.754;11.508;2024-03-17T00:13:48;100342.84;;;0.36;100.00
21545;BME280;10933;50.754;11.508;2024-03-17T00:16:14;100336.38;;;0.30;100.00
21545;BME280;10933;50.754;11.508;2024-03-17T00:18:47;100338.69;;;0.25;100.00
21545;BME280;10933;50.754;11.508;2024-03-17T00:21:13;100333.53;;;0.23;100.00
21545;BME280;10933;50.754;11.508;2024-03-17T00:23:39;100338.53;;;0.35;100.00
21545;BME280;10933;50.754;11.508;2024-03-17T00:26:05;100338.69;;;0.33;100.00
21545;BME280;10933;50.754;11.508;2024-03-17T00:28:33;100340.34;;;0.34;100.00
21545;BME280;10933;50.754;11.508;2024-03-17T00:30:59;100350.28;;;0.24;100.00
21545;BME280;10933;50.754;11.508;2024-03-17T00:33:25;100351.44;;;0.21;100.00
21545;BME280;10933;50.754;11.508;2024-03-17T00:35:51;100345.16;;;0.22;100.00
21545;BME280;10933;50.754;11.508;2024-03-17T00:38:17;100352.28;;;0.22;100.00
21545;BME280;10933;50.754;11.508;2024-03-17T00:40:44;100354.41;;;-0.06;100.00
21545;BME280;10933;50.754;11.508;2024-03-17T00:43:11;100351.94;;;0.09;100.00
21545;BME280;10933;50.754;11.508;2024-03-17T00:45:40;100353.59;;;0.10;100.00
21545;BME280;10933;50.754;11.508;2024-03-17T00:48:06;100360.06;;;0.07;100.00
21545;BME280;10933;50.754;11.508;2024-03-17T00:50:33;100364.53;;;0.07;100.00
21545;BME280;10933;50.754;11.508;2024-03-17T00:52:59;100362.88;;;0.06;100.00
21545;BME280;10933;50.754;11.508;2024-03-17T00:55:26;100362.88;;;0.06;100.00
21545;BME280;10933;50.754;11.508;2024-03-17T00:57:52;100361.84;;;-0.02;100.00
21545;BME280;10933;50.754;11.508;2024-03-17T01:00:20;100369.97;;;-0.11;100.00
21545;BME280;10933;50.754;11.508;2024-03-17T01:02:46;100372.63;;;-0.11;100.00
21545;BME280;10933;50.754;11.508;2024-03-17T01:05:12;100373.47;;;-0.11;100.00
21545;BME280;10933;50.754;11.508;2024-03-17T01:07:39;100373.97;;;-0.07;100.00
21545;BME280;10933;50.754;11.508;2024-03-17T01:10:05;100366.50;;;-0.12;100.00
21545;BME280;10933;50.754;11.508;2024-03-17T01:12:34;100370.81;;;-0.11;100.00
21545;BME280;10933;50.754;11.508;2024-03-17T01:15:02;100366.13;;;-0.17;100.00
21545;BME280;10933;50.754;11.508;2024-03-17T01:17:29;100368.78;;;-0.17;100.00
21545;BME280;10933;50.754;11.508;2024-03-17T01:19:56;100369.44;;;-0.23;100.00
21545;BME280;10933;50.754;11.508;2024-03-17T01:22:22;100370.28;;;-0.22;100.00
21545;BME280;10933;50.754;11.508;2024-03-17T01:24:48;100367.78;;;-0.24;100.00
21545;BME280;10933;50.754;11.508;2024-03-17T01:27:14;100362.81;;;-0.19;100.00
21545;BME280;10933;50.754;11.508;2024-03-17T01:29:42;100364.81;;;-0.21;100.00
21545;BME280;10933;50.754;11.508;2024-03-17T01:32:09;100363.16;;;-0.22;100.00
21545;BME280;10933;50.754;11.508;2024-03-17T01:34:39;100370.72;;;-0.35;100.00
21545;BME280;10933;50.754;11.508;2024-03-17T01:37:06;100366.66;;;-0.55;100.00
21545;BME280;10933;50.754;11.508;2024-03-17T01:39:32;100379.47;;;-0.43;100.00
21545;BME280;10933;50.754;11.508;2024-03-17T01:41:59;100373.84;;;-0.40;100.00
21545;BME280;10933;50.754;11.508;2024-03-17T01:44:27;100375.84;;;-0.42;100.00
21545;BME280;10933;50.754;11.508;2024-03-17T01:46:57;100377.69;;;-0.34;100.00
21545;BME280;10933;50.754;11.508;2024-03-17T01:49:24;100385.31;;;-0.31;100.00
21545;BME280;10933;50.754;11.508;2024-03-17T01:51:52;100372.06;;;-0.31;100.00
21545;BME280;10933;50.754;11.508;2024-03-17T01:54:19;100373.72;;;-0.30;100.00
21545;BME280;10933;50.754;11.508;2024-03-17T01:56:45;100379.75;;;-0.12;100.00
21545;BME280;10933;50.754;11.508;2024-03-17T01:59:11;100378.94;;;-0.04;100.00
21545;BME280;10933;50.754;11.508;2024-03-17T02:01:38;100379.13;;;0.03;100.00
21545;BME280;10933;50.754;11.508;2024-03-17T02:04:06;100381.63;;;0.20;100.00
21545;BME280;10933;50.754;11.508;2024-03-17T02:06:32;100371.66;;;0.06;100.00
21545;BME280;10933;50.754;11.508;2024-03-17T02:08:58;100372.53;;;0.15;100.00
21545;BME280;10933;50.754;11.508;2024-03-17T02:11:29;100374.63;;;-0.05;100.00
21545;BME280;10933;50.754;11.508;2024-03-17T02:13:56;100378.47;;;0.01;100.00
21545;BME280;10933;50.754;11.508;2024-03-17T02:16:25;100375.13;;;-0.10;100.00
21545;BME280;10933;50.754;11.508;2024-03-17T02:18:55;100379.22;;;-0.15;100.00
21545;BME280;10933;50.754;11.508;2024-03-17T02:21:22;100378.81;;;0.06;100.00
21545;BME280;10933;50.754;11.508;2024-03-17T02:23:55;100368.19;;;0.06;100.00
21545;BME280;10933;50.754;11.508;2024-03-17T02:26:22;100372.34;;;0.00;100.00
21545;BME280;10933;50.754;11.508;2024-03-17T02:28:49;100372.81;;;0.04;100.00
21545;BME280;10933;50.754;11.508;2024-03-17T02:31:16;100368.53;;;0.19;100.00
21545;BME280;10933;50.754;11.508;2024-03-17T02:33:43;100368.88;;;0.32;100.00
21545;BME280;10933;50.754;11.508;2024-03-17T02:36:10;100358.59;;;0.21;100.00
21545;BME280;10933;50.754;11.508;2024-03-17T02:38:40;100365.91;;;0.43;100.00
21545;BME280;10933;50.754;11.508;2024-03-17T02:41:26;100359.94;;;0.66;100.00
21545;BME280;10933;50.754;11.508;2024-03-17T02:43:52;100360.25;;;0.79;100.00
21545;BME280;10933;50.754;11.508;2024-03-17T02:46:19;100354.56;;;0.98;100.00
21545;BME280;10933;50.754;11.508;2024-03-17T02:48:47;100351.06;;;1.06;100.00
21545;BME280;10933;50.754;11.508;2024-03-17T02:51:14;100351.06;;;1.06;100.00
21545;BME280;10933;50.754;11.508;2024-03-17T02:53:45;100349.06;;;1.08;100.00
21545;BME280;10933;50.754;11.508;2024-03-17T02:56:12;100344.94;;;0.97;100.00
21545;BME280;10933;50.754;11.508;2024-03-17T02:58:39;100339.63;;;1.05;100.00
21545;BME280;10933;50.754;11.508;2024-03-17T03:01:06;100344.06;;;1.21;100.00
21545;BME280;10933;50.754;11.508;2024-03-17T03:03:33;100334.31;;;1.05;100.00
21545;BME280;10933;50.754;11.508;2024-03-17T03:05:59;100338.25;;;1.17;100.00
21545;BME280;10933;50.754;11.508;2024-03-17T03:08:35;100338.25;;;1.17;100.00
21545;BME280;10933;50.754;11.508;2024-03-17T03:11:05;100335.31;;;0.96;100.00
21545;BME280;10933;50.754;11.508;2024-03-17T03:13:32;100330.47;;;1.16;100.00
21545;BME280;10933;50.754;11.508;2024-03-17T03:15:58;100335.91;;;1.23;100.00
21545;BME280;10933;50.754;11.508;2024-03-17T03:18:24;100333.13;;;1.08;100.00
21545;BME280;10933;50.754;11.508;2024-03-17T03:20:51;100342.03;;;1.23;100.00
21545;BME280;10933;50.754;11.508;2024-03-17T03:23:18;100339.22;;;1.25;100.00
21545;BME280;10933;50.754;11.508;2024-03-17T03:25:45;100334.34;;;0.89;100.00
21545;BME280;10933;50.754;11.508;2024-03-17T03:28:12;100345.94;;;0.96;100.00
21545;BME280;10933;50.754;11.508;2024-03-17T03:30:39;100352.19;;;1.20;100.00
21545;BME280;10933;50.754;11.508;2024-03-17T03:33:06;100346.28;;;0.93;100.00
21545;BME280;10933;50.754;11.508;2024-03-17T03:35:32;100347.94;;;1.02;100.00
21545;BME280;10933;50.754;11.508;2024-03-17T03:37:59;100346.28;;;0.93;100.00
21545;BME280;10933;50.754;11.508;2024-03-17T03:40:27;100353.47;;;0.68;100.00
21545;BME280;10933;50.754;11.508;2024-03-17T03:42:53;100353.28;;;0.78;100.00
21545;BME280;10933;50.754;11.508;2024-03-17T03:45:19;100353.56;;;1.07;100.00
21545;BME280;10933;50.754;11.508;2024-03-17T03:47:46;100345.53;;;1.32;100.00
21545;BME280;10933;50.754;11.508;2024-03-17T03:50:15;100345.44;;;1.48;100.00
21545;BME280;10933;50.754;11.508;2024-03-17T03:52:41;100348.88;;;1.17;100.00
21545;BME280;10933;50.754;11.508;2024-03-17T03:55:09;100343.53;;;1.26;100.00
21545;BME280;10933;50.754;11.508;2024-03-17T03:57:41;100346.31;;;1.40;100.00
21545;BME280;10933;50.754;11.508;2024-03-17T04:00:08;100347.44;;;1.54;100.00
21545;BME280;10933;50.754;11.508;2024-03-17T04:02:44;100341.44;;;1.52;100.00
21545;BME280;10933;50.754;11.508;2024-03-17T04:05:10;100347.44;;;1.54;100.00
21545;BME280;10933;50.754;11.508;2024-03-17T04:07:37;100346.63;;;1.45;100.00
21545;BME280;10933;50.754;11.508;2024-03-17T04:10:04;100346.16;;;1.42;100.00
21545;BME280;10933;50.754;11.508;2024-03-17T04:12:30;100355.41;;;1.54;100.00
21545;BME280;10933;50.754;11.508;2024-03-17T04:14:57;100348.09;;;1.56;100.00
21545;BME280;10933;50.754;11.508;2024-03-17T04:17:24;100350.69;;;1.64;100.00
21545;BME280;10933;50.754;11.508;2024-03-17T04:19:54;100353.47;;;1.79;100.00
21545;BME280;10933;50.754;11.508;2024-03-17T04:22:20;100360.50;;;1.64;100.00
21545;BME280;10933;50.754;11.508;2024-03-17T04:24:49;100352.03;;;1.60;100.00
21545;BME280;10933;50.754;11.508;2024-03-17T04:27:30;100310.75;;;1.72;100.00
21545;BME280;10933;50.754;11.508;2024-03-17T04:29:58;100314.78;;;1.68;100.00
21545;BME280;10933;50.754;11.508;2024-03-17T04:32:25;100315.72;;;1.75;100.00
21545;BME280;10933;50.754;11.508;2024-03-17T04:34:53;100307.31;;;1.64;100.00
21545;BME280;10933;50.754;11.508;2024-03-17T04:37:19;100321.03;;;1.75;100.00
21545;BME280;10933;50.754;11.508;2024-03-17T04:39:46;100324.84;;;1.81;100.00
21545;BME280;10933;50.754;11.508;2024-03-17T04:42:14;100317.25;;;1.70;100.00
21545;BME280;10933;50.754;11.508;2024-03-17T04:44:41;100317.34;;;1.85;100.00
21545;BME280;10933;50.754;11.508;2024-03-17T04:47:08;100322.78;;;1.60;100.00
21545;BME280;10933;50.754;11.508;2024-03-17T04:49:39;100327.38;;;1.74;100.00
21545;BME280;10933;50.754;11.508;2024-03-17T04:52:06;100329.91;;;1.68;100.00
21545;BME280;10933;50.754;11.508;2024-03-17T04:54:34;100342.69;;;1.72;100.00
21545;BME280;10933;50.754;11.508;2024-03-17T04:57:01;100339.38;;;1.70;100.00
21545;BME280;10933;50.754;11.508;2024-03-17T04:59:27;100325.56;;;1.36;100.00
21545;BME280;10933;50.754;11.508;2024-03-17T05:01:54;100343.38;;;1.66;100.00
21545;BME280;10933;50.754;11.508;2024-03-17T05:04:20;100338.19;;;1.73;100.00
21545;BME280;10933;50.754;11.508;2024-03-17T05:06:48;100346.59;;;1.85;100.00
21545;BME280;10933;50.754;11.508;2024-03-17T05:09:19;100343.41;;;1.89;100.00
21545;BME280;10933;50.754;11.508;2024-03-17T05:11:45;100350.28;;;1.84;100.00
21545;BME280;10933;50.754;11.508;2024-03-17T05:14:13;100350.63;;;1.81;100.00
21545;BME280;10933;50.754;11.508;2024-03-17T05:16:39;100340.72;;;1.66;100.00
21545;BME280;10933;50.754;11.508;2024-03-17T05:19:05;100354.97;;;1.73;100.00
21545;BME280;10933;50.754;11.508;2024-03-17T05:21:32;100359.59;;;2.11;100.00
21545;BME280;10933;50.754;11.508;2024-03-17T05:24:00;100348.16;;;1.71;100.00
21545;BME280;10933;50.754;11.508;2024-03-17T05:26:27;100348.91;;;1.88;100.00
21545;BME280;10933;50.754;11.508;2024-03-17T05:28:53;100359.88;;;1.93;100.00
21545;BME280;10933;50.754;11.508;2024-03-17T05:31:20;100362.78;;;1.75;100.00
21545;BME280;10933;50.754;11.508;2024-03-17T05:33:48;100362.91;;;1.82;100.00
21545;BME280;10933;50.754;11.508;2024-03-17T05:36:14;100370.94;;;1.73;100.00
21545;BME280;10933;50.754;11.508;2024-03-17T05:38:41;100373.16;;;1.93;100.00
21545;BME280;10933;50.754;11.508;2024-03-17T05:41:08;100375.41;;;1.73;100.00
21545;BME280;10933;50.754;11.508;2024-03-17T05:43:38;100374.75;;;1.79;100.00
21545;BME280;10933;50.754;11.508;2024-03-17T05:46:10;100378.59;;;1.99;100.00
21545;BME280;10933;50.754;11.508;2024-03-17T05:48:39;100378.53;;;1.85;100.00
21545;BME280;10933;50.754;11.508;2024-03-17T05:51:07;100375.25;;;2.05;100.00
21545;BME280;10933;50.754;11.508;2024-03-17T05:53:34;100381.69;;;2.11;100.00
21545;BME280;10933;50.754;11.508;2024-03-17T05:56:01;100381.34;;;2.14;100.00
21545;BME280;10933;50.754;11.508;2024-03-17T05:58:28;100373.47;;;1.98;100.00
21545;BME280;10933;50.754;11.508;2024-03-17T06:00:54;100380.03;;;2.10;100.00
21545;BME280;10933;50.754;11.508;2024-03-17T06:03:20;100376.63;;;2.24;100.00
21545;BME280;10933;50.754;11.508;2024-03-17T06:05:48;100375.75;;;2.32;100.00
21545;BME280;10933;50.754;11.508;2024-03-17T06:08:14;100367.34;;;2.20;100.00
21545;BME280;10933;50.754;11.508;2024-03-17T06:10:48;100367.94;;;2.30;100.00
21545;BME280;10933;50.754;11.508;2024-03-17T06:13:14;100358.72;;;2.18;100.00
21545;BME280;10933;50.754;11.508;2024-03-17T06:15:45;100365.09;;;2.09;100.00
21545;BME280;10933;50.754;11.508;2024-03-17T06:18:15;100370.75;;;2.06;100.00
21545;BME280;10933;50.754;11.508;2024-03-17T06:20:44;100378.47;;;2.47;100.00
21545;BME280;10933;50.754;11.508;2024-03-17T06:23:11;100377.19;;;2.43;100.00
21545;BME280;10933;50.754;11.508;2024-03-17T06:25:41;100385.22;;;2.57;100.00
21545;BME280;10933;50.754;11.508;2024-03-17T06:28:11;100374.97;;;2.69;100.00
21545;BME280;10933;50.754;11.508;2024-03-17T06:30:43;100379.75;;;2.74;100.00
21545;BME280;10933;50.754;11.508;2024-03-17T06:33:12;100366.97;;;2.69;100.00
21545;BME280;10933;50.754;11.508;2024-03-17T06:35:38;100367.88;;;2.76;100.00
21545;BME280;10933;50.754;11.508;2024-03-17T06:38:05;100370.94;;;2.88;100.00
21545;BME280;10933;50.754;11.508;2024-03-17T06:40:36;100381.84;;;2.78;100.00
21545;BME280;10933;50.754;11.508;2024-03-17T06:43:02;100388.97;;;2.86;100.00
21545;BME280;10933;50.754;11.508;2024-03-17T06:45:28;100378.44;;;2.92;100.00
21545;BME280;10933;50.754;11.508;2024-03-17T06:47:54;100385.41;;;2.93;100.00
21545;BME280;10933;50.754;11.508;2024-03-17T06:50:21;100381.00;;;3.01;100.00
21545;BME280;10933;50.754;11.508;2024-03-17T06:52:48;100389.09;;;3.07;100.00
21545;BME280;10933;50.754;11.508;2024-03-17T06:55:14;100385.88;;;3.41;100.00
21545;BME280;10933;50.754;11.508;2024-03-17T06:57:43;100395.00;;;3.62;100.00
21545;BME280;10933;50.754;11.508;2024-03-17T07:00:13;100396.13;;;4.03;100.00
21545;BME280;10933;50.754;11.508;2024-03-17T07:02:49;100399.09;;;3.94;100.00
21545;BME280;10933;50.754;11.508;2024-03-17T07:05:15;100403.78;;;3.92;100.00
21545;BME280;10933;50.754;11.508;2024-03-17T07:07:42;100406.84;;;4.25;100.00
21545;BME280;10933;50.754;11.508;2024-03-17T07:10:09;100407.25;;;4.64;100.00
21545;BME280;10933;50.754;11.508;2024-03-17T07:12:39;100409.75;;;5.15;100.00
21545;BME280;10933;50.754;11.508;2024-03-17T07:15:06;100418.38;;;5.17;100.00
21545;BME280;10933;50.754;11.508;2024-03-17T07:17:32;100419.19;;;5.11;100.00
21545;BME280;10933;50.754;11.508;2024-03-17T07:19:59;100427.97;;;5.33;100.00
21545;BME280;10933;50.754;11.508;2024-03-17T07:22:25;100441.91;;;5.22;100.00
21545;BME280;10933;50.754;11.508;2024-03-17T07:24:52;100440.59;;;5.74;100.00
21545;BME280;10933;50.754;11.508;2024-03-17T07:27:22;100451.38;;;5.24;100.00
21545;BME280;10933;50.754;11.508;2024-03-17T07:29:49;100447.22;;;5.50;100.00
21545;BME280;10933;50.754;11.508;2024-03-17T07:32:15;100456.34;;;5.27;100.00
21545;BME280;10933;50.754;11.508;2024-03-17T07:34:41;100452.50;;;5.71;100.00
21545;BME280;10933;50.754;11.508;2024-03-17T07:37:07;100461.25;;;6.34;100.00
21545;BME280;10933;50.754;11.508;2024-03-17T07:39:33;100456.50;;;6.23;100.00
21545;BME280;10933;50.754;11.508;2024-03-17T07:42:00;100458.47;;;6.08;100.00
21545;BME280;10933;50.754;11.508;2024-03-17T07:44:27;100461.22;;;6.21;100.00
21545;BME280;10933;50.754;11.508;2024-03-17T07:46:55;100463.53;;;6.24;100.00
21545;BME280;10933;50.754;11.508;2024-03-17T07:49:21;100459.41;;;6.35;100.00
21545;BME280;10933;50.754;11.508;2024-03-17T07:51:47;100465.94;;;6.93;100.00
21545;BME280;10933;50.754;11.508;2024-03-17T07:54:13;100469.19;;;6.08;100.00
21545;BME280;10933;50.754;11.508;2024-03-17T07:56:39;100462.50;;;6.32;100.00
21545;BME280;10933;50.754;11.508;2024-03-17T07:59:05;100454.22;;;6.20;100.00
21545;BME280;10933;50.754;11.508;2024-03-17T08:01:38;100455.94;;;6.47;100.00
21545;BME280;10933;50.754;11.508;2024-03-17T08:04:04;100458.25;;;6.57;100.00
21545;BME280;10933;50.754;11.508;2024-03-17T08:06:31;100463.28;;;7.06;100.00
21545;BME280;10933;50.754;11.508;2024-03-17T08:08:57;100461.19;;;6.95;100.00
21545;BME280;10933;50.754;11.508;2024-03-17T08:11:23;100465.91;;;7.73;100.00
21545;BME280;10933;50.754;11.508;2024-03-17T08:13:50;100461.97;;;7.82;100.00
21545;BME280;10933;50.754;11.508;2024-03-17T08:16:16;100478.59;;;8.68;100.00
21545;BME280;10933;50.754;11.508;2024-03-17T08:18:43;100506.53;;;10.17;100.00
21545;BME280;10933;50.754;11.508;2024-03-17T08:21:09;100541.00;;;10.51;100.00
21545;BME280;10933;50.754;11.508;2024-03-17T08:23:36;100553.38;;;9.97;100.00
21545;BME280;10933;50.754;11.508;2024-03-17T08:26:07;100569.59;;;9.91;100.00
21545;BME280;10933;50.754;11.508;2024-03-17T08:28:33;100565.94;;;10.65;100.00
21545;BME280;10933;50.754;11.508;2024-03-17T08:31:01;100575.91;;;10.28;100.00
21545;BME280;10933;50.754;11.508;2024-03-17T08:33:28;100579.19;;;10.67;100.00
21545;BME280;10933;50.754;11.508;2024-03-17T08:38:22;100590.47;;;11.54;100.00
21545;BME280;10933;50.754;11.508;2024-03-17T08:40:50;100601.81;;;12.44;100.00
21545;BME280;10933;50.754;11.508;2024-03-17T08:43:17;100608.56;;;12.82;100.00
21545;BME280;10933;50.754;11.508;2024-03-17T08:45:43;100613.78;;;13.40;100.00
21545;BME280;10933;50.754;11.508;2024-03-17T08:48:09;100577.56;;;11.67;100.00
21545;BME280;10933;50.754;11.508;2024-03-17T08:50:36;100587.50;;;12.08;100.00
21545;BME280;10933;50.754;11.508;2024-03-17T08:53:03;100594.38;;;12.63;100.00
21545;BME280;10933;50.754;11.508;2024-03-17T08:55:29;100578.69;;;10.40;100.00
21545;BME280;10933;50.754;11.508;2024-03-17T08:57:55;100558.94;;;9.53;100.00
21545;BME280;10933;50.754;11.508;2024-03-17T09:00:22;100573.28;;;10.21;100.00
21545;BME280;10933;50.754;11.508;2024-03-17T09:02:48;100574.13;;;10.40;100.00
21545;BME280;10933;50.754;11.508;2024-03-17T09:05:14;100576.19;;;10.75;100.00
21545;BME280;10933;50.754;11.508;2024-03-17T09:07:40;100582.53;;;10.99;100.00
21545;BME280;10933;50.754;11.508;2024-03-17T09:10:06;100578.59;;;10.83;100.00
21545;BME280;10933;50.754;11.508;2024-03-17T09:12:34;100587.78;;;11.65;100.00
21545;BME280;10933;50.754;11.508;2024-03-17T09:15:02;100576.06;;;11.71;100.00
21545;BME280;10933;50.754;11.508;2024-03-17T09:17:28;100582.94;;;12.73;100.00
21545;BME280;10933;50.754;11.508;2024-03-17T09:19:54;100590.41;;;14.01;100.00
21545;BME280;10933;50.754;11.508;2024-03-17T09:22:20;100557.72;;;12.84;100.00
21545;BME280;10933;50.754;11.508;2024-03-17T09:24:47;100551.66;;;12.93;100.00
21545;BME280;10933;50.754;11.508;2024-03-17T09:27:13;100574.41;;;14.60;100.00
21545;BME280;10933;50.754;11.508;2024-03-17T09:29:46;100575.59;;;15.13;100.00
21545;BME280;10933;50.754;11.508;2024-03-17T09:32:12;100571.28;;;15.17;100.00
21545;BME280;10933;50.754;11.508;2024-03-17T09:34:46;100548.41;;;13.37;100.00
21545;BME280;10933;50.754;11.508;2024-03-17T09:37:14;100570.50;;;16.18;100.00
21545;BME280;10933;50.754;11.508;2024-03-17T09:39:41;100535.06;;;12.61;100.00
21545;BME280;10933;50.754;11.508;2024-03-17T09:42:18;100519.88;;;12.20;100.00
21545;BME280;10933;50.754;11.508;2024-03-17T09:44:48;100547.63;;;12.67;100.00
21545;BME280;10933;50.754;11.508;2024-03-17T09:47:21;100552.41;;;13.06;100.00
21545;BME280;10933;50.754;11.508;2024-03-17T09:49:48;100569.63;;;14.29;100.00
21545;BME280;10933;50.754;11.508;2024-03-17T09:52:34;100547.41;;;13.26;100.00
21545;BME280;10933;50.754;11.508;2024-03-17T09:55:09;100582.44;;;15.21;100.00
21545;BME280;10933;50.754;11.508;2024-03-17T09:57:40;100571.75;;;13.88;100.00
21545;BME280;10933;50.754;11.508;2024-03-17T10:00:11;100571.25;;;13.91;100.00
21545;BME280;10933;50.754;11.508;2024-03-17T10:02:46;100567.06;;;14.00;100.00
21545;BME280;10933;50.754;11.508;2024-03-17T10:05:19;100565.94;;;13.63;100.00
21545;BME280;10933;50.754;11.508;2024-03-17T10:07:47;100557.94;;;13.90;100.00
21545;BME280;10933;50.754;11.508;2024-03-17T10:10:15;100563.91;;;14.91;100.00
21545;BME280;10933;50.754;11.508;2024-03-17T10:12:49;100544.09;;;14.08;100.00
21545;BME280;10933;50.754;11.508;2024-03-17T10:15:15;100558.97;;;15.64;100.00
21545;BME280;10933;50.754;11.508;2024-03-17T10:17:41;100549.78;;;15.75;100.00
21545;BME280;10933;50.754;11.508;2024-03-17T10:25:29;100542.19;;;16.19;100.00
21545;BME280;10933;50.754;11.508;2024-03-17T10:27:56;100532.25;;;15.28;100.00
21545;BME280;10933;50.754;11.508;2024-03-17T10:30:25;100527.75;;;15.44;100.00
21545;BME280;10933;50.754;11.508;2024-03-17T10:32:57;100535.22;;;16.43;100.00
21545;BME280;10933;50.754;11.508;2024-03-17T10:35:32;100551.63;;;16.64;100.00
21545;BME280;10933;50.754;11.508;2024-03-17T10:38:00;100546.41;;;17.35;100.00
21545;BME280;10933;50.754;11.508;2024-03-17T10:40:28;100546.13;;;17.52;100.00
21545;BME280;10933;50.754;11.508;2024-03-17T10:43:00;100531.34;;;18.14;100.00
21545;BME280;10933;50.754;11.508;2024-03-17T10:45:28;100518.97;;;18.42;100.00
21545;BME280;10933;50.754;11.508;2024-03-17T10:48:02;100514.56;;;18.51;100.00
21545;BME280;10933;50.754;11.508;2024-03-17T10:50:36;100531.09;;;17.14;100.00
21545;BME280;10933;50.754;11.508;2024-03-17T10:53:04;100499.28;;;16.41;100.00
21545;BME280;10933;50.754;11.508;2024-03-17T10:55:44;100499.63;;;15.60;100.00
21545;BME280;10933;50.754;11.508;2024-03-17T10:58:34;100496.84;;;14.69;100.00
21545;BME280;10933;50.754;11.508;2024-03-17T11:01:04;100507.97;;;15.22;100.00
21545;BME280;10933;50.754;11.508;2024-03-17T11:03:34;100531.06;;;15.83;100.00
21545;BME280;10933;50.754;11.508;2024-03-17T11:06:04;100521.97;;;15.36;100.00
21545;BME280;10933;50.754;11.508;2024-03-17T11:08:33;100523.13;;;16.87;100.00
21545;BME280;10933;50.754;11.508;2024-03-17T11:11:00;100504.31;;;14.13;100.00
21545;BME280;10933;50.754;11.508;2024-03-17T11:13:30;100531.78;;;16.11;100.00
21545;BME280;10933;50.754;11.508;2024-03-17T11:15:58;100493.19;;;15.40;100.00
21545;BME280;10933;50.754;11.508;2024-03-17T11:18:34;100492.47;;;15.22;100.00
21545;BME280;10933;50.754;11.508;2024-03-17T11:23:34;100502.16;;;14.81;100.00
21545;BME280;10933;50.754;11.508;2024-03-17T11:26:00;100509.31;;;17.34;100.00
21545;BME280;10933;50.754;11.508;2024-03-17T11:34:04;100504.31;;;15.38;100.00
21545;BME280;10933;50.754;11.508;2024-03-17T11:36:38;100503.06;;;14.65;100.00
21545;BME280;10933;50.754;11.508;2024-03-17T11:39:06;100500.31;;;14.87;100.00
21545;BME280;10933;50.754;11.508;2024-03-17T11:46:59;100469.00;;;15.11;100.00
21545;BME280;10933;50.754;11.508;2024-03-17T11:49:29;100453.03;;;13.95;100.00
21545;BME280;10933;50.754;11.508;2024-03-17T11:52:03;100456.41;;;14.46;100.00
21545;BME280;10933;50.754;11.508;2024-03-17T11:54:32;100455.25;;;14.42;100.00
21545;BME280;10933;50.754;11.508;2024-03-17T11:57:03;100465.41;;;15.32;100.00
21545;BME280;10933;50.754;11.508;2024-03-17T11:59:30;100451.31;;;14.77;100.00
21545;BME280;10933;50.754;11.508;2024-03-17T12:01:56;100475.75;;;17.59;100.00
21545;BME280;10933;50.754;11.508;2024-03-17T12:04:23;100469.06;;;18.21;100.00
21545;BME280;10933;50.754;11.508;2024-03-17T12:06:55;100458.00;;;19.01;100.00
21545;BME280;10933;50.754;11.508;2024-03-17T12:09:22;100460.16;;;18.60;100.00
21545;BME280;10933;50.754;11.508;2024-03-17T12:11:51;100451.50;;;17.17;100.00
21545;BME280;10933;50.754;11.508;2024-03-17T12:14:21;100440.53;;;15.51;100.00
21545;BME280;10933;50.754;11.508;2024-03-17T12:19:24;100433.56;;;16.17;100.00
21545;BME280;10933;50.754;11.508;2024-03-17T12:21:53;100400.31;;;14.57;100.00
21545;BME280;10933;50.754;11.508;2024-03-17T12:24:25;100434.75;;;15.79;100.00
21545;BME280;10933;50.754;11.508;2024-03-17T12:26:53;100412.59;;;16.23;100.00
21545;BME280;10933;50.754;11.508;2024-03-17T12:29:37;100410.50;;;15.36;100.00
21545;BME280;10933;50.754;11.508;2024-03-17T12:34:40;100432.38;;;15.93;100.00
21545;BME280;10933;50.754;11.508;2024-03-17T12:37:07;100415.88;;;15.63;100.00
21545;BME280;10933;50.754;11.508;2024-03-17T12:39:34;100414.28;;;14.65;100.00
21545;BME280;10933;50.754;11.508;2024-03-17T12:42:07;100410.63;;;14.82;100.00
21545;BME280;10933;50.754;11.508;2024-03-17T12:44:51;100415.75;;;14.51;100.00
21545;BME280;10933;50.754;11.508;2024-03-17T12:47:25;100414.81;;;14.67;100.00
21545;BME280;10933;50.754;11.508;2024-03-17T12:55:01;100406.00;;;14.33;100.00
21545;BME280;10933;50.754;11.508;2024-03-17T12:57:48;100400.13;;;14.14;100.00
21545;BME280;10933;50.754;11.508;2024-03-17T13:00:33;100391.97;;;14.90;100.00
21545;BME280;10933;50.754;11.508;2024-03-17T13:03:03;100392.25;;;14.94;100.00
21545;BME280;10933;50.754;11.508;2024-03-17T13:05:30;100363.34;;;14.24;100.00
21545;BME280;10933;50.754;11.508;2024-03-17T13:07:58;100372.91;;;15.22;100.00
21545;BME280;10933;50.754;11.508;2024-03-17T13:10:25;100382.34;;;14.78;100.00
21545;BME280;10933;50.754;11.508;2024-03-17T13:13:03;100370.72;;;14.55;100.00